createdAt,value
2018-05-11T00:02:13.713Z,0.80
2018-05-11T00:04:42.986Z,0.70
2018-05-11T00:07:13.282Z,0.60
2018-05-11T00:09:42.556Z,0.60
2018-05-11T00:12:11.833Z,0.90
2018-05-11T00:14:41.108Z,0.70
2018-05-11T00:17:11.126Z,0.80
2018-05-11T00:19:41.192Z,0.80
2018-05-11T00:22:10.683Z,0.90
2018-05-11T00:24:39.955Z,0.60
2018-05-11T00:27:09.243Z,0.70
2018-05-11T00:29:38.511Z,0.80
2018-05-11T00:32:07.864Z,0.90
2018-05-11T00:34:37.195Z,0.70
2018-05-11T00:37:06.514Z,0.83
2018-05-11T00:39:36.427Z,0.70
2018-05-11T00:42:05.842Z,0.80
2018-05-11T00:44:35.141Z,0.70
2018-05-11T00:47:04.455Z,0.77
2018-05-11T00:49:34.235Z,0.90
2018-05-11T00:52:03.505Z,0.80
2018-05-11T00:54:32.736Z,0.70
2018-05-11T00:57:01.992Z,0.75
2018-05-11T00:59:31.238Z,0.75
2018-05-11T01:02:00.514Z,1.10
2018-05-11T01:04:30.564Z,0.90
2018-05-11T01:06:59.840Z,0.90
2018-05-11T01:09:29.118Z,1.00
2018-05-11T01:11:59.190Z,1.00
2018-05-11T01:14:28.471Z,0.90
2018-05-11T01:16:57.863Z,1.00
2018-05-11T01:19:27.219Z,0.90
2018-05-11T01:21:56.479Z,1.30
2018-05-11T01:24:25.772Z,1.00
2018-05-11T01:26:55.051Z,1.10
2018-05-11T01:29:25.639Z,1.20
2018-05-11T01:31:54.884Z,1.10
2018-05-11T01:34:24.900Z,1.15
2018-05-11T01:36:54.320Z,1.30
2018-05-11T01:39:23.590Z,1.40
2018-05-11T01:41:53.667Z,1.30
2018-05-11T01:44:23.612Z,1.48
2018-05-11T01:46:54.499Z,1.60
2018-05-11T01:49:23.811Z,1.50
2018-05-11T01:51:53.094Z,1.30
2018-05-11T01:54:22.462Z,1.50
2018-05-11T01:56:51.710Z,1.40
2018-05-11T01:59:21.072Z,1.58
2018-05-11T02:01:51.207Z,1.95
2018-05-11T02:04:20.479Z,1.90
2018-05-11T02:06:57.269Z,2.08
2018-05-11T02:09:26.740Z,2.20
2018-05-11T02:11:55.985Z,2.10
2018-05-11T02:14:26.004Z,2.12
2018-05-11T02:16:55.285Z,2.40
2018-05-11T02:19:24.552Z,2.28
2018-05-11T02:21:54.014Z,2.55
2018-05-11T02:28:12.632Z,3.33
2018-05-11T02:30:41.922Z,3.17
2018-05-11T02:33:11.193Z,3.35
2018-05-11T02:35:40.476Z,3.00
2018-05-11T02:38:11.039Z,3.00
2018-05-11T02:40:40.307Z,2.80
2018-05-11T02:43:09.591Z,2.95
2018-05-11T02:45:38.927Z,2.78
2018-05-11T02:48:08.311Z,3.30
2018-05-11T02:50:37.809Z,3.47
2018-05-11T02:53:07.001Z,3.40
2018-05-11T02:55:36.336Z,3.47
2018-05-11T02:58:05.607Z,4.00
2018-05-11T03:00:34.923Z,3.60
2018-05-11T03:03:04.343Z,4.18
2018-05-11T03:05:34.474Z,4.15
2018-05-11T03:08:03.821Z,4.43
2018-05-11T03:10:33.112Z,4.50
2018-05-11T03:13:02.414Z,4.50
2018-05-11T03:15:31.670Z,5.03
2018-05-11T03:18:00.951Z,5.05
2018-05-11T03:20:30.999Z,5.00
2018-05-11T03:23:00.718Z,4.45
2018-05-11T03:26:24.924Z,5.73
2018-05-11T03:28:54.244Z,4.97
2018-05-11T03:31:23.497Z,3.90
2018-05-11T03:33:52.755Z,4.72
2018-05-11T03:36:22.843Z,4.40
2018-05-11T03:38:52.170Z,4.85
2018-05-11T03:41:21.445Z,4.15
2018-05-11T03:43:51.010Z,4.90
2018-05-11T03:46:20.981Z,4.50
2018-05-11T03:48:50.296Z,4.50
2018-05-11T03:51:19.559Z,4.60
2018-05-11T03:53:49.699Z,4.70
2018-05-11T03:56:18.958Z,3.80
2018-05-11T03:58:48.319Z,4.43
2018-05-11T04:01:26.494Z,3.80
2018-05-11T04:04:07.275Z,4.43
2018-05-11T04:07:43.920Z,4.07
2018-05-11T04:10:13.244Z,4.30
2018-05-11T04:12:42.523Z,3.40
2018-05-11T04:15:12.876Z,3.37
2018-05-11T04:17:42.148Z,3.95
2018-05-11T04:20:11.490Z,4.10
2018-05-11T04:22:41.549Z,3.33
2018-05-11T04:25:11.597Z,3.67
2018-05-11T04:27:43.428Z,3.50
2018-05-11T04:30:13.730Z,3.50
2018-05-11T04:32:45.975Z,4.07
2018-05-11T04:35:15.720Z,3.50
2018-05-11T04:37:44.992Z,3.70
2018-05-11T04:40:14.314Z,3.60
2018-05-11T04:42:46.811Z,3.90
2018-05-11T04:45:16.147Z,3.62
2018-05-11T04:47:45.747Z,3.12
2018-05-11T04:50:16.217Z,3.67
2018-05-11T04:52:45.505Z,3.75
2018-05-11T04:55:14.913Z,4.22
2018-05-11T04:57:45.333Z,4.00
2018-05-11T05:00:16.676Z,3.62
2018-05-11T05:02:45.986Z,4.50
2018-05-11T05:05:17.148Z,3.87
2018-05-11T05:07:46.464Z,3.70
2018-05-11T05:10:19.267Z,3.90
2018-05-11T05:12:50.005Z,3.70
2018-05-11T05:15:19.260Z,3.50
2018-05-11T05:17:48.525Z,3.85
2018-05-11T05:20:18.400Z,3.87
2018-05-11T05:23:14.582Z,4.20
2018-05-11T05:25:44.626Z,3.65
2018-05-11T05:28:18.192Z,3.90
2018-05-11T05:30:49.790Z,3.60
2018-05-11T05:33:19.871Z,3.70
2018-05-11T05:35:49.146Z,3.97
2018-05-11T05:38:18.431Z,3.58
2018-05-11T05:40:53.343Z,3.97
2018-05-11T05:43:24.702Z,4.40
2018-05-11T05:45:56.036Z,4.10
2018-05-11T05:48:25.543Z,3.30
2018-05-11T05:50:55.705Z,4.00
2018-05-11T05:53:25.578Z,4.10
2018-05-11T05:55:54.920Z,3.60
2018-05-11T05:58:34.497Z,3.58
2018-05-11T06:01:04.599Z,3.95
2018-05-11T06:03:37.147Z,3.60
2018-05-11T06:06:06.499Z,3.92
2018-05-11T06:08:36.640Z,3.80
2018-05-11T06:11:06.173Z,3.40
2018-05-11T06:13:48.591Z,3.20
2018-05-11T06:16:19.344Z,4.18
2018-05-11T06:18:50.484Z,4.03
2018-05-11T06:21:26.419Z,4.10
2018-05-11T06:23:59.094Z,4.07
2018-05-11T06:26:29.637Z,4.07
2018-05-11T06:29:02.245Z,4.32
2018-05-11T06:31:35.340Z,4.30
2018-05-11T06:34:05.381Z,4.18
2018-05-11T06:36:38.299Z,3.90
2018-05-11T06:39:08.041Z,4.22
2018-05-11T06:41:37.360Z,4.30
2018-05-11T06:44:10.042Z,3.58
2018-05-11T06:46:53.733Z,3.92
2018-05-11T06:49:30.804Z,3.80
2018-05-11T06:52:01.364Z,4.30
2018-05-11T06:54:37.918Z,3.80
2018-05-11T06:57:22.445Z,4.70
2018-05-11T06:59:54.267Z,4.30
2018-05-11T07:02:28.756Z,4.80
2018-05-11T07:05:00.883Z,4.47
2018-05-11T07:07:30.250Z,5.10
2018-05-11T07:09:59.657Z,4.03
2018-05-11T07:12:31.080Z,4.60
2018-05-11T07:15:01.263Z,6.40
2018-05-11T07:17:30.640Z,5.90
2018-05-11T07:20:01.132Z,5.90
2018-05-11T07:22:30.797Z,5.57
2018-05-11T07:25:00.072Z,5.95
2018-05-11T07:27:29.850Z,5.20
2018-05-11T07:30:00.734Z,4.87
2018-05-11T07:32:30.676Z,5.00
2018-05-11T07:35:07.572Z,5.40
2018-05-11T07:37:38.220Z,5.60
2018-05-11T07:40:10.935Z,6.20
2018-05-11T07:43:04.854Z,5.82
2018-05-11T07:45:35.919Z,5.57
2018-05-11T07:48:06.084Z,5.50
2018-05-11T07:50:36.788Z,5.40
2018-05-11T07:53:06.471Z,5.87
2018-05-11T07:55:47.417Z,6.05
2018-05-11T07:58:37.748Z,6.25
2018-05-11T08:01:09.528Z,6.30
2018-05-11T08:03:42.024Z,5.93
2018-05-11T08:06:11.363Z,6.30
2018-05-11T08:08:48.395Z,6.03
2018-05-11T08:11:19.897Z,5.95
2018-05-11T08:13:49.929Z,6.07
2018-05-11T08:16:26.601Z,5.03
2018-05-11T08:18:59.795Z,5.40
2018-05-11T08:21:29.937Z,5.25
2018-05-11T08:24:04.823Z,5.20
2018-05-11T08:26:37.132Z,5.47
2018-05-11T08:31:55.566Z,6.50
2018-05-11T08:34:31.852Z,5.97
2018-05-11T08:40:28.008Z,5.90
2018-05-11T08:43:11.589Z,5.05
2018-05-11T08:45:43.881Z,5.50
2018-05-11T08:48:14.636Z,5.40
2018-05-11T08:50:55.060Z,5.60
2018-05-11T08:53:33.224Z,5.47
2018-05-11T08:56:09.995Z,5.75
2018-05-11T08:58:41.953Z,5.78
2018-05-11T09:01:14.632Z,5.45
2018-05-11T09:03:52.455Z,5.43
2018-05-11T09:06:25.989Z,5.07
2018-05-11T09:08:58.526Z,5.80
2018-05-11T09:11:33.124Z,5.60
2018-05-11T09:14:36.551Z,5.80
2018-05-11T09:17:22.498Z,5.15
2018-05-11T09:19:53.578Z,5.43
2018-05-11T09:22:24.422Z,5.40
2018-05-11T09:24:55.031Z,6.40
2018-05-11T09:28:01.921Z,5.50
2018-05-11T09:30:39.726Z,5.30
2018-05-11T09:33:21.488Z,5.03
2018-05-11T09:36:09.593Z,5.00
2018-05-11T09:42:35.262Z,4.43
2018-05-11T09:45:09.157Z,4.83
2018-05-11T09:47:42.967Z,4.72
2018-05-11T09:50:14.599Z,4.05
2018-05-11T09:52:50.523Z,4.70
2018-05-11T09:55:26.447Z,3.75
2018-05-11T09:58:12.519Z,4.35
2018-05-11T10:00:44.495Z,4.43
2018-05-11T10:03:35.264Z,5.30
2018-05-11T10:06:12.043Z,4.55
2018-05-11T10:08:48.758Z,4.47
2018-05-11T10:11:48.058Z,4.50
2018-05-11T10:14:21.836Z,3.85
2018-05-11T10:16:54.139Z,4.40
2018-05-11T10:19:24.937Z,4.22
2018-05-11T10:22:01.764Z,4.40
2018-05-11T10:24:32.955Z,4.70
2018-05-11T10:27:04.345Z,4.68
2018-05-11T10:29:36.941Z,5.35
2018-05-11T10:32:07.694Z,4.90
2018-05-11T10:34:40.939Z,4.65
2018-05-11T10:37:13.684Z,4.75
2018-05-11T10:39:48.813Z,5.07
2018-05-11T10:42:21.254Z,5.33
2018-05-11T10:45:07.153Z,5.05
2018-05-11T10:47:38.357Z,4.85
2018-05-11T10:50:11.177Z,4.70
2018-05-11T10:52:45.184Z,5.70
2018-05-11T10:55:19.627Z,5.70
2018-05-11T11:06:41.611Z,4.40
2018-05-11T11:11:36.558Z,5.10
2018-05-11T11:14:07.686Z,3.90
2018-05-11T11:16:52.498Z,4.73
2018-05-11T11:19:26.048Z,4.70
2018-05-11T11:21:59.516Z,4.80
2018-05-11T11:24:31.614Z,5.97
2018-05-11T11:27:08.282Z,4.87
2018-05-11T11:29:41.738Z,5.35
2018-05-11T11:32:26.824Z,5.20
2018-05-11T11:34:57.941Z,6.00
2018-05-11T11:37:33.366Z,6.13
2018-05-11T11:40:31.030Z,5.90
2018-05-11T11:43:02.142Z,5.95
2018-05-11T11:45:52.521Z,5.97
2018-05-11T11:48:24.840Z,5.50
2018-05-11T11:51:19.954Z,5.90
2018-05-11T11:53:51.258Z,6.10
2018-05-11T11:56:22.839Z,5.13
2018-05-11T11:58:54.698Z,6.00
2018-05-11T12:01:27.858Z,5.50
2018-05-11T12:03:58.722Z,5.85
2018-05-11T12:06:29.878Z,5.35
2018-05-11T12:09:01.505Z,4.45
2018-05-11T12:13:31.201Z,6.05
2018-05-11T12:16:10.834Z,5.95
2018-05-11T12:19:35.124Z,6.05
2018-05-11T12:22:04.440Z,5.53
2018-05-11T12:24:36.293Z,6.00
2018-05-11T12:27:07.368Z,6.12
2018-05-11T12:29:39.765Z,5.50
2018-05-11T12:32:29.394Z,5.70
2018-05-11T12:35:02.089Z,6.20
2018-05-11T12:41:10.702Z,5.70
2018-05-11T12:43:40.831Z,7.30
2018-05-11T12:50:01.648Z,6.93
2018-05-11T12:53:02.146Z,6.25
2018-05-11T12:55:32.756Z,6.50
2018-05-11T12:58:06.328Z,6.78
2018-05-11T13:00:36.572Z,6.80
2018-05-11T13:03:08.853Z,7.10
2018-05-11T13:05:50.775Z,5.80
2018-05-11T13:08:28.712Z,6.00
2018-05-11T13:11:34.701Z,7.10
2018-05-11T13:14:04.571Z,6.90
2018-05-11T13:16:34.383Z,7.60
2018-05-11T13:19:20.735Z,6.10
2018-05-11T13:21:52.269Z,5.85
2018-05-11T13:24:24.427Z,5.70
2018-05-11T13:27:05.942Z,5.60
2018-05-11T13:29:46.276Z,5.72
2018-05-11T13:32:15.536Z,5.90
2018-05-11T13:34:46.856Z,6.40
2018-05-11T13:37:20.192Z,6.43
2018-05-11T13:40:38.478Z,5.85
2018-05-11T13:50:27.803Z,5.20
2018-05-11T13:56:38.463Z,5.90
2018-05-11T13:59:10.060Z,6.40
2018-05-11T14:01:40.154Z,5.10
2018-05-11T14:04:13.854Z,6.32
2018-05-11T14:07:29.401Z,5.60
2018-05-11T14:10:59.090Z,5.70
2018-05-11T14:17:10.745Z,5.72
2018-05-11T14:19:50.864Z,5.90
2018-05-11T14:22:25.136Z,5.83
2018-05-11T14:24:59.943Z,5.93
2018-05-11T14:27:56.597Z,5.57
2018-05-11T14:30:27.024Z,5.80
2018-05-11T14:33:01.048Z,6.05
2018-05-11T14:35:35.715Z,6.10
2018-05-11T14:38:07.979Z,5.90
2018-05-11T14:40:39.032Z,7.18
2018-05-11T14:43:15.125Z,6.40
2018-05-11T14:45:45.103Z,6.45
2018-05-11T14:48:20.135Z,6.30
2018-05-11T14:54:40.668Z,6.70
2018-05-11T14:57:19.581Z,6.80
2018-05-11T14:59:51.210Z,6.97
2018-05-11T15:02:21.354Z,7.20
2018-05-11T15:04:52.836Z,7.43
2018-05-11T15:07:23.144Z,7.45
2018-05-11T15:10:19.715Z,7.40
2018-05-11T15:13:10.542Z,7.72
2018-05-11T15:15:45.388Z,8.07
2018-05-11T15:18:15.058Z,7.22
2018-05-11T15:20:45.944Z,7.40
2018-05-11T15:23:15.804Z,7.40
2018-05-11T15:25:45.340Z,7.00
2018-05-11T15:28:16.518Z,6.87
2018-05-11T15:30:46.115Z,8.02
2018-05-11T15:33:22.287Z,7.20
2018-05-11T15:35:58.588Z,6.63
2018-05-11T15:38:29.722Z,7.37
2018-05-11T15:41:01.331Z,8.27
2018-05-11T15:43:39.131Z,7.97
2018-05-11T15:46:15.250Z,7.57
2018-05-11T15:48:52.866Z,7.57
2018-05-11T15:51:24.620Z,8.13
2018-05-11T15:53:57.747Z,8.70
2018-05-11T16:00:03.036Z,7.85
2018-05-11T16:02:38.118Z,7.37
2018-05-11T16:05:10.496Z,6.60
2018-05-11T16:08:26.928Z,7.07
2018-05-11T16:10:58.096Z,7.12
2018-05-11T16:13:29.075Z,7.07
2018-05-11T16:15:59.290Z,7.07
2018-05-11T16:18:32.270Z,6.85
2018-05-11T16:21:03.485Z,6.87
2018-05-11T16:23:44.695Z,6.70
2018-05-11T16:26:15.968Z,6.10
2018-05-11T16:28:46.234Z,6.22
2018-05-11T16:31:18.992Z,6.37
2018-05-11T16:33:48.624Z,6.37
2018-05-11T16:36:58.735Z,6.30
2018-05-11T16:39:30.808Z,6.00
2018-05-11T16:42:04.911Z,6.63
2018-05-11T16:44:36.009Z,6.43
2018-05-11T16:47:07.643Z,6.47
2018-05-11T16:49:37.515Z,6.10
2018-05-11T16:52:08.623Z,6.43
2018-05-11T16:54:40.184Z,6.40
2018-05-11T16:57:09.456Z,6.78
2018-05-11T16:59:38.868Z,5.87
2018-05-11T17:02:11.219Z,6.50
2018-05-11T17:04:42.194Z,6.20
2018-05-11T17:07:11.529Z,7.10
2018-05-11T17:09:40.885Z,6.30
2018-05-11T17:12:10.210Z,6.30
2018-05-11T17:14:43.136Z,6.32
2018-05-11T17:17:12.528Z,5.60
2018-05-11T17:19:42.701Z,3.85
2018-05-11T17:22:12.490Z,3.37
2018-05-11T17:24:41.932Z,2.60
2018-05-11T17:27:11.391Z,2.55
2018-05-11T17:29:42.577Z,2.47
2018-05-11T17:32:17.605Z,2.03
2018-05-11T17:34:51.765Z,2.03
2018-05-11T17:37:48.011Z,2.10
2018-05-11T17:40:17.723Z,1.85
2018-05-11T17:42:48.518Z,1.55
2018-05-11T17:45:18.278Z,1.67
2018-05-11T17:47:57.696Z,2.10
2018-05-11T17:50:29.768Z,1.60
2018-05-11T17:53:04.251Z,1.75
2018-05-11T17:55:34.918Z,1.40
2018-05-11T17:58:04.523Z,1.50
2018-05-11T18:00:34.863Z,1.80
2018-05-11T18:03:04.579Z,1.50
2018-05-11T18:05:33.820Z,1.50
2018-05-11T18:08:04.392Z,1.83
2018-05-11T18:10:35.224Z,1.92
2018-05-11T18:13:08.686Z,1.60
2018-05-11T18:19:30.997Z,1.40
2018-05-11T18:22:30.358Z,1.40
2018-05-11T18:25:08.572Z,1.70
2018-05-11T18:27:39.350Z,2.47
2018-05-11T18:30:17.043Z,1.60
2018-05-11T18:33:28.763Z,1.73
2018-05-11T18:36:02.271Z,1.40
2018-05-11T18:38:36.031Z,1.30
2018-05-11T18:41:06.122Z,1.40
2018-05-11T18:43:35.404Z,1.70
2018-05-11T18:46:18.235Z,1.30
2018-05-11T18:48:49.826Z,1.87
2018-05-11T18:51:31.612Z,1.40
2018-05-11T18:54:06.136Z,1.30
2018-05-11T18:56:35.536Z,1.30
2018-05-11T18:59:12.093Z,1.17
2018-05-11T19:01:42.493Z,1.50
2018-05-11T19:04:11.751Z,1.30
2018-05-11T19:06:43.521Z,1.17
2018-05-11T19:09:15.968Z,1.10
2018-05-11T19:11:45.750Z,1.30
2018-05-11T19:14:15.131Z,1.30
2018-05-11T19:16:44.815Z,1.20
2018-05-11T19:19:15.697Z,1.23
2018-05-11T19:21:45.750Z,1.20
2018-05-11T19:24:16.044Z,1.30
2018-05-11T19:26:45.879Z,1.10
2018-05-11T19:29:15.229Z,1.37
2018-05-11T19:31:45.012Z,1.20
2018-05-11T19:34:15.181Z,1.12
2018-05-11T19:36:45.009Z,1.40
2018-05-11T19:39:15.632Z,1.50
2018-05-11T19:41:44.963Z,1.20
2018-05-11T19:44:26.979Z,1.25
2018-05-11T19:46:56.747Z,1.20
2018-05-11T19:49:26.844Z,1.12
2018-05-11T19:51:56.278Z,1.40
2018-05-11T19:54:26.065Z,1.20
2018-05-11T19:56:56.095Z,1.50
2018-05-11T19:59:26.194Z,1.00
2018-05-11T20:01:56.634Z,1.30
2018-05-11T20:04:25.887Z,1.25
2018-05-11T20:06:55.270Z,1.20
2018-05-11T20:09:24.969Z,1.12
2018-05-11T20:11:54.567Z,1.50
2018-05-11T20:14:24.001Z,1.40
2018-05-11T20:16:53.580Z,1.30
2018-05-11T20:19:23.218Z,1.00
2018-05-11T20:21:52.779Z,1.30
2018-05-11T20:24:24.701Z,1.30
2018-05-11T20:26:54.527Z,1.12
2018-05-11T20:29:24.695Z,1.10
2018-05-11T20:31:54.425Z,1.20
2018-05-11T20:34:23.695Z,1.20
2018-05-11T20:36:53.727Z,1.17
2018-05-11T20:39:23.536Z,1.10
2018-05-11T20:41:52.800Z,1.40
2018-05-11T20:44:22.077Z,1.27
2018-05-11T20:46:51.841Z,1.12
2018-05-11T20:49:22.392Z,1.30
2018-05-11T20:51:52.276Z,1.20
2018-05-11T20:54:21.997Z,1.17
2018-05-11T20:56:51.827Z,1.33
2018-05-11T20:59:58.623Z,1.10
2018-05-11T21:02:32.527Z,1.30
2018-05-11T21:05:06.834Z,1.20
2018-05-11T21:07:39.632Z,1.40
2018-05-11T21:10:10.559Z,1.10
2018-05-11T21:12:40.932Z,1.10
2018-05-11T21:15:13.491Z,1.20
2018-05-11T21:17:45.405Z,0.90
2018-05-11T21:20:18.796Z,1.00
2018-05-11T21:22:50.013Z,1.30
2018-05-11T21:25:20.970Z,1.30
2018-05-11T21:27:51.399Z,1.08
2018-05-11T21:30:21.998Z,1.10
2018-05-11T21:32:51.446Z,1.10
2018-05-11T21:35:22.987Z,1.30
2018-05-11T21:37:53.402Z,1.20
2018-05-11T21:40:26.491Z,1.10
2018-05-11T21:42:58.659Z,1.23
2018-05-11T21:45:42.016Z,1.00
2018-05-11T21:48:11.312Z,1.00
2018-05-11T21:50:40.752Z,1.10
2018-05-11T21:53:10.541Z,1.20
2018-05-11T21:55:39.919Z,1.20
2018-05-11T21:58:10.464Z,1.40
2018-05-11T22:01:06.014Z,1.00
2018-05-11T22:03:38.330Z,1.10
2018-05-11T22:06:09.636Z,1.00
2018-05-11T22:08:41.139Z,1.00
2018-05-11T22:11:10.872Z,1.10
2018-05-11T22:13:40.287Z,1.20
2018-05-11T22:16:13.181Z,1.10
2018-05-11T22:18:43.274Z,1.10
2018-05-11T22:21:14.635Z,1.20
2018-05-11T22:23:48.584Z,1.20
2018-05-11T22:26:18.507Z,1.30
2018-05-11T22:28:48.263Z,1.20
2018-05-11T22:31:17.567Z,1.10
2018-05-11T22:33:47.308Z,1.00
2018-05-11T22:36:17.203Z,1.10
2018-05-11T22:38:46.631Z,1.00
2018-05-11T22:41:19.472Z,1.60
2018-05-11T22:43:48.763Z,1.00
2018-05-11T22:46:20.227Z,1.20
2018-05-11T22:48:50.301Z,1.30
2018-05-11T22:51:20.705Z,1.00
2018-05-11T22:53:51.651Z,1.10
2018-05-11T22:57:26.998Z,1.00
2018-05-11T22:59:56.793Z,1.20
2018-05-11T23:02:26.094Z,1.10
2018-05-11T23:04:55.514Z,1.20
2018-05-11T23:07:25.559Z,1.50
2018-05-11T23:09:56.849Z,1.40
2018-05-11T23:12:27.104Z,1.40
2018-05-11T23:14:57.149Z,1.10
2018-05-11T23:17:28.360Z,1.50
2018-05-11T23:19:57.782Z,1.20
2018-05-11T23:22:28.686Z,1.30
2018-05-11T23:24:57.955Z,1.30
2018-05-11T23:27:27.991Z,1.30
2018-05-11T23:29:57.863Z,1.20
2018-05-11T23:32:27.117Z,1.20
2018-05-11T23:34:56.403Z,1.50
2018-05-11T23:37:26.973Z,1.30
2018-05-11T23:39:56.504Z,1.20
2018-05-11T23:42:25.779Z,1.40
2018-05-11T23:44:55.089Z,1.20
2018-05-11T23:47:24.350Z,1.40
2018-05-11T23:49:53.619Z,1.70
2018-05-11T23:52:23.213Z,1.40
2018-05-11T23:54:52.519Z,1.20
2018-05-11T23:57:22.571Z,1.25
2018-05-11T23:59:52.132Z,1.20
